Zim Ningbo — A8SI5 — position and weather

sailwx.info

Track history (hours):
 
Tides and Currents Weather Stations Pressure Air Temp Water Temp Dewpoint Dewpoint Depression Visibility Wind Speed Wind Dir Waves Ship Positions

Zim Ningbo

Last reported at 2018-Jul-15 06:14 UTC. Time now 2018-Jul-21 09:29 UTC.
Position N 35°02' E 129°29'.

Length 334 m; draft 13.1 m.

Type: Ship. MMSI: 636014219.

Date/timePositionNaut miles runAvg speedWind from/ knotsBaromVisibWave heightAir tempDewpointWater temp
2018-Jul-15 06:14N 35°02' E 129°29'419.8
2018-Jul-15 06:00N 34°59' E 129°25'1419.1
2018-Jul-15 05:17N 34°55' E 129°09'1515.8
2018-Jul-15 04:19N 34°56' E 128°51'420 9.3
2018-Jul-13 07:13N 30°32' E 122°23'417.6
2018-Jul-13 06:58N 30°33' E 122°18'715.2
2018-Jul-13 06:29N 30°34' E 122°10'6 0.2
2018-Jul-12 06:08N 30°37' E 122°04'1 1.2
2018-Jul-12 05:37N 30°37' E 122°04'1 7.9
2018-Jul-12 05:26N 30°36' E 122°05'512.4
2018-Jul-12 05:00N 30°34' E 122°11'4 7.8
2018-Jul-12 04:30N 30°34' E 122°16'  
Track history (hours):
 
Tides and Currents Weather Stations Pressure Air Temp Water Temp Dewpoint Dewpoint Depression Visibility Wind Speed Wind Dir Waves Ship Positions

Zim Ningbo

Last reported at 2018-Jul-15 06:14 UTC. Time now 2018-Jul-21 09:29 UTC.
Position N 35°02' E 129°29'.

Length 334 m; draft 13.1 m.

Type: Ship. MMSI: 636014219.

Date/timePositionNaut miles runAvg speedWind from/ knotsBaromVisibWave heightAir tempDewpointWater temp
2018-Jul-15 06:14N 35°02' E 129°29'419.8
2018-Jul-15 06:00N 34°59' E 129°25'1419.1
2018-Jul-15 05:17N 34°55' E 129°09'1515.8
2018-Jul-15 04:19N 34°56' E 128°51'420 9.3
2018-Jul-13 07:13N 30°32' E 122°23'417.6
2018-Jul-13 06:58N 30°33' E 122°18'715.2
2018-Jul-13 06:29N 30°34' E 122°10'6 0.2
2018-Jul-12 06:08N 30°37' E 122°04'1 1.2
2018-Jul-12 05:37N 30°37' E 122°04'1 7.9
2018-Jul-12 05:26N 30°36' E 122°05'512.4
2018-Jul-12 05:00N 30°34' E 122°11'4 7.8
2018-Jul-12 04:30N 30°34' E 122°16'  

Dump ship's entire track history